Time;durP1;ratioP1;P1;durP2;ratioP2;P2;SDS_P1;SDS_P2;PMS_P1;PMS_P2;Temp;Humidity;BMP_temperature;BMP_pressure;BME280_temperature;BME280_humidity;BME280_pressure;Samples;Min_cycle;Max_cycle;Signal;HPM_P1;HPM_P2
2022/02/05 00:02:09;;;;;;;13.40;7.00;;;;;;;;;;1711091;82;21086;-69
2022/02/05 00:04:33;;;;;;;10.90;5.33;;;;;;;;;;1724204;82;21135;-69
2022/02/05 00:06:58;;;;;;;12.68;5.50;;;;;;;;;;1699642;82;21024;-69
2022/02/05 00:41:19;;;;;;;14.07;5.25;;;;;;;;;;1752390;80;21119;-69
2022/02/05 00:43:48;;;;;;;8.63;5.35;;;;;;;;;;1748262;80;21552;-69
2022/02/05 00:46:09;;;;;;;9.73;5.12;;;;;;;;;;1742439;80;21009;-69
2022/02/05 00:48:35;;;;;;;9.75;4.90;;;;;;;;;;1724573;83;21041;-69
2022/02/05 00:51:37;;;;;;;10.48;5.75;;;;;;;;;;1722772;82;21819;-69
2022/02/05 00:53:37;;;;;;;13.45;6.28;;;;;;;;;;1696510;83;21076;-69
2022/02/05 00:56:14;;;;;;;15.65;6.35;;;;;;;;;;1708580;83;21044;-69
2022/02/05 00:58:34;;;;;;;11.45;5.90;;;;;;;;;;1704804;83;21088;-69
2022/02/05 01:00:59;;;;;;;12.00;5.70;;;;;;;;;;1698430;83;21532;-70
2022/02/05 01:03:26;;;;;;;12.88;6.87;;;;;;;;;;1719831;83;21037;-69
2022/02/05 01:05:52;;;;;;;11.63;6.25;;;;;;;;;;1710615;82;21084;-69
2022/02/05 01:08:18;;;;;;;9.98;5.33;;;;;;;;;;1714967;83;21045;-69
2022/02/05 01:10:44;;;;;;;11.10;6.12;;;;;;;;;;1721581;83;21060;-70
2022/02/05 01:13:12;;;;;;;11.85;6.25;;;;;;;;;;1703416;83;21064;-69
2022/02/05 01:16:00;;;;;;;13.62;5.62;;;;;;;;;;1714329;83;21049;-69
2022/02/05 01:18:09;;;;;;;11.80;6.12;;;;;;;;;;1714349;83;21564;-69
2022/02/05 01:23:13;;;;;;;13.15;6.25;;;;;;;;;;1712080;83;21064;-70
2022/02/05 01:25:43;;;;;;;12.65;6.40;;;;;;;;;;1692937;83;21114;-70
2022/02/05 01:28:14;;;;;;;10.38;5.62;;;;;;;;;;1714174;83;21612;-69
2022/02/05 01:30:42;;;;;;;12.13;5.85;;;;;;;;;;1711305;83;21675;-69
2022/02/05 01:56:48;;;;;;;13.28;5.70;;;;;;;;;;1787131;79;21524;-69
2022/02/05 01:59:20;;;;;;;9.35;5.40;;;;;;;;;;1780191;80;21049;-70
2022/02/05 02:09:30;;;;;;;8.33;4.37;;;;;;;;;;1689368;82;21567;-74
2022/02/05 02:12:17;;;;;;;15.28;7.03;;;;;;;;;;1677617;84;21044;-73
2022/02/05 02:22:48;;;;;;;13.03;6.00;;;;;;;;;;1652989;85;21081;-73
2022/02/05 02:27:44;;;;;;;21.65;8.40;;;;;;;;;;1653278;85;21556;-74
2022/02/05 02:30:11;;;;;;;12.05;6.58;;;;;;;;;;1692891;83;21009;-73
2022/02/05 02:32:36;;;;;;;13.22;6.35;;;;;;;;;;1685283;85;21043;-73
2022/02/05 02:35:08;;;;;;;17.60;7.33;;;;;;;;;;1694936;85;21084;-73
2022/02/05 02:37:37;;;;;;;16.27;7.55;;;;;;;;;;1673512;84;21045;-73
2022/02/05 02:40:07;;;;;;;15.08;7.45;;;;;;;;;;1684890;85;21080;-73
2022/02/05 02:42:26;;;;;;;18.80;8.08;;;;;;;;;;1682871;83;21596;-73
2022/02/05 02:44:52;;;;;;;16.90;7.92;;;;;;;;;;1683355;84;21029;-73
2022/02/05 02:47:18;;;;;;;21.17;9.63;;;;;;;;;;1695879;84;21516;-74
2022/02/05 02:58:00;;;;;;;14.75;7.45;;;;;;;;;;1694738;83;21017;-74
2022/02/05 03:00:25;;;;;;;15.18;7.60;;;;;;;;;;1695163;84;21049;-73
2022/02/05 03:02:51;;;;;;;12.60;6.40;;;;;;;;;;1687109;84;21025;-74
2022/02/05 03:05:17;;;;;;;11.83;6.70;;;;;;;;;;1692228;85;21520;-73
2022/02/05 03:07:44;;;;;;;14.38;6.22;;;;;;;;;;1722224;83;21075;-74
2022/02/05 03:10:10;;;;;;;18.00;8.18;;;;;;;;;;1722255;83;21092;-74
2022/02/05 03:12:36;;;;;;;16.77;7.37;;;;;;;;;;1717635;83;21089;-74
2022/02/05 03:15:04;;;;;;;17.23;8.45;;;;;;;;;;1696292;83;21112;-73
2022/02/05 03:17:53;;;;;;;13.68;6.58;;;;;;;;;;1701615;82;21083;-73
2022/02/05 03:20:05;;;;;;;14.38;6.92;;;;;;;;;;1720639;83;21052;-73
2022/02/05 03:22:31;;;;;;;19.35;9.05;;;;;;;;;;1691083;84;21049;-73
2022/02/05 03:24:57;;;;;;;23.20;11.50;;;;;;;;;;1684267;85;21021;-74
2022/02/05 03:27:23;;;;;;;20.32;9.53;;;;;;;;;;1692195;85;21477;-73
2022/02/05 03:29:49;;;;;;;12.95;6.60;;;;;;;;;;1709250;83;20986;-73
2022/02/05 03:32:16;;;;;;;22.67;11.68;;;;;;;;;;1689468;83;21033;-73
2022/02/05 03:34:42;;;;;;;16.42;8.05;;;;;;;;;;1717371;83;21064;-73
2022/02/05 03:37:08;;;;;;;21.50;10.95;;;;;;;;;;1718796;83;20985;-73
2022/02/05 03:39:34;;;;;;;20.90;12.07;;;;;;;;;;1721955;82;21068;-73
2022/02/05 03:42:00;;;;;;;19.82;10.88;;;;;;;;;;1719929;82;20937;-73
2022/02/05 03:44:26;;;;;;;15.18;7.35;;;;;;;;;;1716437;82;20997;-73
2022/02/05 03:46:54;;;;;;;18.92;10.00;;;;;;;;;;1692671;83;21165;-73
2022/02/05 03:49:21;;;;;;;21.60;11.00;;;;;;;;;;1714739;84;21032;-73
2022/02/05 03:51:47;;;;;;;22.02;12.30;;;;;;;;;;1724741;83;21029;-74
2022/02/05 03:54:14;;;;;;;20.08;11.57;;;;;;;;;;1723803;82;21048;-73
2022/02/05 03:56:40;;;;;;;17.60;9.33;;;;;;;;;;1724820;83;21075;-73
2022/02/05 03:59:06;;;;;;;20.10;8.93;;;;;;;;;;1724762;82;21056;-73
2022/02/05 04:01:33;;;;;;;21.55;10.63;;;;;;;;;;1724697;83;21068;-73
2022/02/05 04:03:59;;;;;;;14.25;6.95;;;;;;;;;;1724944;82;21552;-73
2022/02/05 04:06:25;;;;;;;16.02;9.68;;;;;;;;;;1724864;83;20970;-73
2022/02/05 04:08:54;;;;;;;20.37;11.53;;;;;;;;;;1724538;83;21080;-74
2022/02/05 04:11:37;;;;;;;14.03;7.15;;;;;;;;;;1723877;83;21057;-73
2022/02/05 04:16:47;;;;;;;24.45;12.05;;;;;;;;;;1716558;82;21024;-74
2022/02/05 04:19:13;;;;;;;19.87;9.45;;;;;;;;;;1691482;85;21013;-73
2022/02/05 04:21:40;;;;;;;15.10;8.53;;;;;;;;;;1692427;85;21587;-73
2022/02/05 04:24:06;;;;;;;17.00;7.95;;;;;;;;;;1692420;85;21032;-74
2022/02/05 04:26:32;;;;;;;17.90;8.28;;;;;;;;;;1706357;83;21037;-73
2022/02/05 04:28:58;;;;;;;15.70;7.15;;;;;;;;;;1716939;83;21004;-74
2022/02/05 04:31:23;;;;;;;13.88;7.28;;;;;;;;;;1719598;82;21054;-73
2022/02/05 04:33:49;;;;;;;11.10;6.00;;;;;;;;;;1719343;83;21013;-73
2022/02/05 04:36:18;;;;;;;18.45;7.75;;;;;;;;;;1720198;83;21080;-73
2022/02/05 04:38:47;;;;;;;14.00;6.65;;;;;;;;;;1721401;82;21511;-73
2022/02/05 04:41:26;;;;;;;15.55;7.42;;;;;;;;;;1699725;83;21021;-73
2022/02/05 04:46:58;;;;;;;18.48;10.55;;;;;;;;;;1720754;82;20977;-73
2022/02/05 04:51:54;;;;;;;17.90;9.83;;;;;;;;;;1697948;83;21085;-74
2022/02/05 05:04:52;;;;;;;12.45;6.00;;;;;;;;;;1720520;82;21104;-73
2022/02/05 05:15:25;;;;;;;17.55;9.33;;;;;;;;;;1717554;82;21041;-72
2022/02/05 05:20:24;;;;;;;;;;;;;;;;;;1691661;85;21025;-73
2022/02/05 05:22:50;;;;;;;16.50;8.78;;;;;;;;;;1690016;84;20445;-73
2022/02/05 05:25:16;;;;;;;15.18;9.23;;;;;;;;;;1689885;85;21037;-73
2022/02/05 05:27:44;;;;;;;18.32;9.73;;;;;;;;;;1654126;85;21049;-74
2022/02/05 05:30:10;;;;;;;9.58;6.12;;;;;;;;;;1688767;84;21025;-72
2022/02/05 05:32:36;;;;;;;19.30;7.90;;;;;;;;;;1721791;82;21048;-72
2022/02/05 05:35:03;;;;;;;18.23;8.68;;;;;;;;;;1708999;82;21040;-72
2022/02/05 05:37:29;;;;;;;20.62;10.13;;;;;;;;;;1724072;83;20925;-73
2022/02/05 05:39:55;;;;;;;16.60;7.15;;;;;;;;;;1712388;83;21005;-72
2022/02/05 05:42:25;;;;;;;17.82;9.68;;;;;;;;;;1723485;83;21001;-74
2022/02/05 05:45:16;;;;;;;16.35;10.00;;;;;;;;;;1723911;83;21088;-72
2022/02/05 05:52:23;;;;;;;11.18;5.65;;;;;;;;;;1724594;83;21017;-74
2022/02/05 05:54:49;;;;;;;17.12;7.33;;;;;;;;;;1724632;83;21033;-74
2022/02/05 05:57:15;;;;;;;20.05;10.50;;;;;;;;;;1724649;83;21040;-74
2022/02/05 05:59:41;;;;;;;13.78;7.62;;;;;;;;;;1724472;83;21631;-74
2022/02/05 06:02:07;;;;;;;11.03;5.60;;;;;;;;;;1686424;85;21062;-74
2022/02/05 06:04:33;;;;;;;11.40;6.20;;;;;;;;;;1735777;81;21083;-75
2022/02/05 06:07:00;;;;;;;13.83;7.80;;;;;;;;;;1730638;81;21057;-75
2022/02/05 06:09:26;;;;;;;14.03;7.15;;;;;;;;;;1717646;83;20985;-75
2022/02/05 06:11:52;;;;;;;14.13;7.12;;;;;;;;;;1702061;83;21068;-74
2022/02/05 06:14:22;;;;;;;11.48;5.35;;;;;;;;;;1736626;82;21033;-75
2022/02/05 06:16:56;;;;;;;14.85;8.18;;;;;;;;;;1750133;82;21037;-73
2022/02/05 06:19:15;;;;;;;13.32;6.42;;;;;;;;;;1699999;83;21513;-74
2022/02/05 06:21:41;;;;;;;11.50;6.90;;;;;;;;;;1726503;82;21078;-74
2022/02/05 06:24:07;;;;;;;14.45;7.55;;;;;;;;;;1743147;82;21555;-73
2022/02/05 06:26:33;;;;;;;10.30;5.72;;;;;;;;;;1735677;82;21043;-73
2022/02/05 06:28:59;;;;;;;15.00;8.03;;;;;;;;;;1751470;81;21016;-74
2022/02/05 06:31:25;;;;;;;8.75;5.28;;;;;;;;;;1694286;83;21039;-74
2022/02/05 06:33:51;;;;;;;12.40;7.75;;;;;;;;;;1724387;83;21022;-73
2022/02/05 06:36:18;;;;;;;14.68;7.90;;;;;;;;;;1721740;82;21528;-74
2022/02/05 06:38:44;;;;;;;12.85;7.85;;;;;;;;;;1724300;83;21037;-73
2022/02/05 06:41:10;;;;;;;15.10;8.08;;;;;;;;;;1735564;82;21508;-74
2022/02/05 06:43:36;;;;;;;12.73;5.85;;;;;;;;;;1723608;82;21013;-74
2022/02/05 06:46:02;;;;;;;18.55;8.98;;;;;;;;;;1732455;82;21048;-74
2022/02/05 06:48:28;;;;;;;16.32;8.38;;;;;;;;;;1697471;83;21044;-74
2022/02/05 06:50:54;;;;;;;11.05;5.20;;;;;;;;;;1708033;82;20989;-77
2022/02/05 06:53:20;;;;;;;14.63;8.00;;;;;;;;;;1751967;82;21048;-74
2022/02/05 06:55:46;;;;;;;15.03;8.63;;;;;;;;;;1734296;82;21040;-75
2022/02/05 06:58:12;;;;;;;13.95;7.87;;;;;;;;;;1733851;82;21020;-75
2022/02/05 07:00:38;;;;;;;12.10;5.55;;;;;;;;;;1729581;82;21497;-75
2022/02/05 07:03:04;;;;;;;14.45;7.53;;;;;;;;;;1736629;80;21080;-74
2022/02/05 07:05:32;;;;;;;12.85;6.15;;;;;;;;;;1732707;82;21081;-73
2022/02/05 07:08:00;;;;;;;13.68;8.08;;;;;;;;;;1722928;82;21085;-74
2022/02/05 07:10:26;;;;;;;12.37;6.42;;;;;;;;;;1724665;83;21053;-74
2022/02/05 07:13:10;;;;;;;15.48;8.10;;;;;;;;;;1689328;85;21575;-75
2022/02/05 07:15:30;;;;;;;;;;;;;;;;;;1729282;82;21535;-75
2022/02/05 07:20:43;;;;;;;10.50;4.95;;;;;;;;;;1725249;82;21032;-75
2022/02/05 07:31:09;;;;;;;9.70;5.08;;;;;;;;;;1718865;82;20117;-78
2022/02/05 07:33:35;;;;;;;9.78;5.17;;;;;;;;;;1716942;82;21066;-77
2022/02/05 07:36:01;;;;;;;14.35;7.50;;;;;;;;;;1721630;82;21342;-77
2022/02/05 07:38:29;;;;;;;18.42;8.85;;;;;;;;;;1717739;82;21066;-76
2022/02/05 07:40:54;;;;;;;13.78;8.10;;;;;;;;;;1742128;82;20974;-76
2022/02/05 07:43:22;;;;;;;10.43;5.75;;;;;;;;;;1727645;82;21005;-76
2022/02/05 07:45:48;;;;;;;15.65;8.75;;;;;;;;;;1721337;83;21037;-76
2022/02/05 07:48:14;;;;;;;11.60;5.33;;;;;;;;;;1730216;82;21041;-76
2022/02/05 07:50:40;;;;;;;14.75;8.45;;;;;;;;;;1729809;82;21036;-76
2022/02/05 07:53:06;;;;;;;14.95;8.13;;;;;;;;;;1712927;82;21220;-77
2022/02/05 07:55:32;;;;;;;14.75;5.85;;;;;;;;;;1713723;83;21077;-77
2022/02/05 07:57:58;;;;;;;13.53;8.55;;;;;;;;;;1725325;82;20966;-75
2022/02/05 08:00:25;;;;;;;14.68;8.10;;;;;;;;;;1721594;82;20985;-76
2022/02/05 08:02:52;;;;;;;12.20;5.90;;;;;;;;;;1727805;82;21085;-74
2022/02/05 08:05:18;;;;;;;14.38;7.65;;;;;;;;;;1694086;81;21015;-75
2022/02/05 08:07:44;;;;;;;11.15;6.33;;;;;;;;;;1699454;83;21055;-74
2022/02/05 08:10:12;;;;;;;14.10;7.78;;;;;;;;;;1727085;82;21049;-74
2022/02/05 08:12:42;;;;;;;14.45;8.00;;;;;;;;;;1693821;83;21521;-74
2022/02/05 08:15:07;;;;;;;10.43;6.15;;;;;;;;;;1730529;81;21056;-74
2022/02/05 08:17:36;;;;;;;13.55;8.13;;;;;;;;;;1726313;81;21068;-74
2022/02/05 08:20:02;;;;;;;16.27;8.23;;;;;;;;;;1724320;83;21028;-74
2022/02/05 08:22:29;;;;;;;10.13;5.50;;;;;;;;;;1712819;83;21061;-75
2022/02/05 08:24:57;;;;;;;19.15;8.88;;;;;;;;;;1737237;82;21060;-74
2022/02/05 08:27:22;;;;;;;18.20;7.97;;;;;;;;;;1727686;81;21084;-74
2022/02/05 08:32:22;;;;;;;13.80;7.67;;;;;;;;;;1710364;84;21474;-75
2022/02/05 08:34:47;;;;;;;14.78;8.03;;;;;;;;;;1693822;82;21122;-75
2022/02/05 08:37:13;;;;;;;16.40;9.20;;;;;;;;;;1698197;84;20999;-76
2022/02/05 08:39:40;;;;;;;15.95;8.65;;;;;;;;;;1707151;82;20976;-76
2022/02/05 08:42:06;;;;;;;12.80;7.60;;;;;;;;;;1715048;81;21531;-75
2022/02/05 08:44:32;;;;;;;19.32;9.75;;;;;;;;;;1680598;84;21069;-74
2022/02/05 08:46:58;;;;;;;12.93;7.05;;;;;;;;;;1680370;85;21556;-76
2022/02/05 08:49:28;;;;;;;14.58;8.58;;;;;;;;;;1725768;83;20957;-74
2022/02/05 08:51:52;;;;;;;11.78;5.92;;;;;;;;;;1747511;82;21056;-75
2022/02/05 08:54:18;;;;;;;17.20;9.68;;;;;;;;;;1735122;82;21045;-75
2022/02/05 08:56:44;;;;;;;13.95;8.23;;;;;;;;;;1705704;84;21050;-75
2022/02/05 08:59:10;;;;;;;10.40;5.28;;;;;;;;;;1712479;83;21012;-74
2022/02/05 09:01:52;;;;;;;22.85;11.63;;;;;;;;;;1716832;82;21017;-74
2022/02/05 09:04:24;;;;;;;15.23;8.90;;;;;;;;;;1723530;83;21352;-74
2022/02/05 09:06:41;;;;;;;17.10;9.48;;;;;;;;;;1709018;83;21188;-75
2022/02/05 09:09:09;;;;;;;19.00;8.05;;;;;;;;;;1717348;83;21580;-76
2022/02/05 09:12:01;;;;;;;23.83;12.15;;;;;;;;;;1738580;81;21012;-76
2022/02/05 09:16:37;;;;;;;12.28;6.03;;;;;;;;;;1700507;83;21068;-75
2022/02/05 09:19:03;;;;;;;15.68;8.63;;;;;;;;;;1696156;83;21091;-76
2022/02/05 09:21:31;;;;;;;14.05;8.53;;;;;;;;;;1722154;83;21033;-76
2022/02/05 09:23:59;;;;;;;15.70;8.68;;;;;;;;;;1667491;86;21532;-75
2022/02/05 09:26:25;;;;;;;13.98;8.28;;;;;;;;;;1667832;86;21008;-76
2022/02/05 09:29:02;;;;;;;16.40;9.68;;;;;;;;;;1701209;84;21047;-75
2022/02/05 09:31:28;;;;;;;15.88;8.30;;;;;;;;;;1705088;83;21052;-76
2022/02/05 09:33:53;;;;;;;14.40;8.33;;;;;;;;;;1748925;81;21006;-75
2022/02/05 09:36:19;;;;;;;13.13;7.55;;;;;;;;;;1763740;81;20998;-75
2022/02/05 09:38:45;;;;;;;15.58;8.78;;;;;;;;;;1761496;81;21551;-75
2022/02/05 09:41:11;;;;;;;14.15;7.85;;;;;;;;;;1763611;81;21024;-75
2022/02/05 09:43:37;;;;;;;13.83;7.80;;;;;;;;;;1750791;81;21051;-75
2022/02/05 09:46:03;;;;;;;14.87;8.38;;;;;;;;;;1745904;81;21020;-76
2022/02/05 09:48:31;;;;;;;13.98;6.15;;;;;;;;;;1733355;81;21510;-74
2022/02/05 09:51:04;;;;;;;15.35;9.20;;;;;;;;;;1732881;81;21031;-75
2022/02/05 09:53:26;;;;;;;15.20;8.60;;;;;;;;;;1758237;81;21060;-74
2022/02/05 09:55:52;;;;;;;14.83;7.30;;;;;;;;;;1760468;81;21036;-74
2022/02/05 09:58:18;;;;;;;15.72;9.03;;;;;;;;;;1745882;81;21097;-74
2022/02/05 10:01:01;;;;;;;15.70;8.63;;;;;;;;;;1727992;81;21041;-74
2022/02/05 10:03:28;;;;;;;13.32;8.20;;;;;;;;;;1735727;81;21092;-75
2022/02/05 10:05:56;;;;;;;11.12;6.17;;;;;;;;;;1727473;83;21057;-75
2022/02/05 10:08:22;;;;;;;16.15;9.20;;;;;;;;;;1717412;83;21064;-76
2022/02/05 10:10:50;;;;;;;10.03;5.65;;;;;;;;;;1726822;82;20997;-76
2022/02/05 10:13:18;;;;;;;15.30;8.98;;;;;;;;;;1724112;82;21080;-75
2022/02/05 10:15:50;;;;;;;13.85;8.00;;;;;;;;;;1717355;83;21053;-74
2022/02/05 10:18:27;;;;;;;19.23;9.88;;;;;;;;;;1721369;83;21096;-74
2022/02/05 10:20:52;;;;;;;17.95;10.78;;;;;;;;;;1710054;82;21052;-74
2022/02/05 10:23:19;;;;;;;17.35;7.58;;;;;;;;;;1710185;82;21469;-74
2022/02/05 10:25:46;;;;;;;16.73;10.38;;;;;;;;;;1726177;82;21000;-74
2022/02/05 10:28:12;;;;;;;16.45;9.55;;;;;;;;;;1735369;82;21508;-74
2022/02/05 10:30:44;;;;;;;16.48;9.45;;;;;;;;;;1722201;82;21067;-73
2022/02/05 10:33:16;;;;;;;18.32;9.58;;;;;;;;;;1686432;85;21037;-74
2022/02/05 10:35:45;;;;;;;14.78;7.47;;;;;;;;;;1657092;85;21090;-75
2022/02/05 10:41:01;;;;;;;19.85;10.98;;;;;;;;;;1721129;83;22106;-75
2022/02/05 10:43:13;;;;;;;;;;;;;;;;;;1720631;82;21000;-73
2022/02/05 10:45:41;;;;;;;12.50;6.22;;;;;;;;;;1742322;82;20351;-74
2022/02/05 10:48:07;;;;;;;15.83;9.23;;;;;;;;;;1710675;82;21033;-73
2022/02/05 10:50:34;;;;;;;13.48;7.10;;;;;;;;;;1679429;84;20978;-74
2022/02/05 10:53:05;;;;;;;17.73;10.60;;;;;;;;;;1723597;82;21056;-75
2022/02/05 10:55:43;;;;;;;15.90;7.78;;;;;;;;;;1721741;82;21068;-73
2022/02/05 11:05:53;;;;;;;19.65;11.25;;;;;;;;;;1721762;82;21088;-73
2022/02/05 11:18:38;;;;;;;15.78;7.58;;;;;;;;;;1737855;80;21051;-73
2022/02/05 11:20:57;;;;;;;20.95;10.72;;;;;;;;;;1728674;82;21075;-73
2022/02/05 11:23:23;;;;;;;12.93;6.70;;;;;;;;;;1739875;82;20985;-72
2022/02/05 11:25:49;;;;;;;20.32;11.38;;;;;;;;;;1703185;82;21044;-73
2022/02/05 11:28:15;;;;;;;16.65;9.65;;;;;;;;;;1740129;82;21008;-72
2022/02/05 11:30:47;;;;;;;18.75;10.75;;;;;;;;;;1704297;83;21048;-72
2022/02/05 11:33:20;;;;;;;21.23;11.03;;;;;;;;;;1728447;82;21021;-72
2022/02/05 11:35:58;;;;;;;;;;;;;;;;;;1732387;82;21075;-72
2022/02/05 11:38:16;;;;;;;11.83;6.40;;;;;;;;;;1736531;82;20158;-73
2022/02/05 11:40:42;;;;;;;21.33;11.20;;;;;;;;;;1740048;82;21515;-72
2022/02/05 11:43:15;;;;;;;18.02;10.58;;;;;;;;;;1740643;82;21000;-72
2022/02/05 11:45:40;;;;;;;18.55;10.68;;;;;;;;;;1728124;82;20989;-72
2022/02/05 11:48:25;;;;;;;23.35;12.00;;;;;;;;;;1740820;82;21559;-72
2022/02/05 11:51:09;;;;;;;20.30;11.35;;;;;;;;;;1747592;82;21005;-73
2022/02/05 11:53:54;;;;;;;25.10;15.10;;;;;;;;;;1728709;82;21531;-72
2022/02/05 11:56:21;;;;;;;18.48;10.68;;;;;;;;;;1729850;82;21045;-72
2022/02/05 11:58:57;;;;;;;17.02;6.85;;;;;;;;;;1732440;82;21472;-72
2022/02/05 12:01:37;;;;;;;19.62;10.98;;;;;;;;;;1674572;84;21555;-72
2022/02/05 12:04:12;;;;;;;20.65;11.28;;;;;;;;;;1705522;84;20984;-72
2022/02/05 12:06:54;;;;;;;18.45;10.50;;;;;;;;;;1689679;84;21087;-71
2022/02/05 12:09:32;;;;;;;17.77;10.63;;;;;;;;;;1698882;83;21103;-73
2022/02/05 12:12:17;;;;;;;19.17;10.72;;;;;;;;;;1677234;85;21628;-73
2022/02/05 12:15:01;;;;;;;19.40;9.73;;;;;;;;;;1689081;84;20996;-71
2022/02/05 12:17:38;;;;;;;19.37;11.03;;;;;;;;;;1688358;84;20992;-72
2022/02/05 12:20:06;;;;;;;19.12;9.58;;;;;;;;;;1689197;84;21079;-72
2022/02/05 12:22:49;;;;;;;21.07;10.48;;;;;;;;;;1685978;84;21072;-73
2022/02/05 12:25:17;;;;;;;19.15;10.53;;;;;;;;;;1688239;84;20992;-73
2022/02/05 12:27:43;;;;;;;23.80;11.43;;;;;;;;;;1680286;84;21076;-73
2022/02/05 12:30:32;;;;;;;16.57;8.15;;;;;;;;;;1676111;84;21021;-72
2022/02/05 12:32:57;;;;;;;21.10;11.38;;;;;;;;;;1694815;84;21520;-71
2022/02/05 12:35:23;;;;;;;20.02;11.20;;;;;;;;;;1699950;84;21021;-72
2022/02/05 12:37:49;;;;;;;19.12;10.58;;;;;;;;;;1690243;84;21017;-72
2022/02/05 12:40:15;;;;;;;11.40;6.37;;;;;;;;;;1677094;85;21575;-72
2022/02/05 12:42:43;;;;;;;17.27;10.03;;;;;;;;;;1699465;84;21056;-72
2022/02/05 12:45:11;;;;;;;15.10;9.65;;;;;;;;;;1683051;84;21033;-72
2022/02/05 12:47:42;;;;;;;22.95;11.43;;;;;;;;;;1692903;84;21023;-72
2022/02/05 12:50:08;;;;;;;20.57;10.20;;;;;;;;;;1676414;84;21064;-72
2022/02/05 12:52:34;;;;;;;17.85;11.22;;;;;;;;;;1681223;84;21087;-73
2022/02/05 12:55:02;;;;;;;18.10;10.93;;;;;;;;;;1687079;84;21084;-73
2022/02/05 12:57:28;;;;;;;18.85;10.60;;;;;;;;;;1689690;84;21056;-73
2022/02/05 12:59:54;;;;;;;14.00;7.37;;;;;;;;;;1686130;84;21036;-73
2022/02/05 13:02:23;;;;;;;20.65;11.60;;;;;;;;;;1682793;84;21151;-73
2022/02/05 13:04:50;;;;;;;16.60;10.15;;;;;;;;;;1685753;84;21052;-73
2022/02/05 13:07:21;;;;;;;15.15;7.15;;;;;;;;;;1696801;84;21036;-72
2022/02/05 13:09:54;;;;;;;18.65;10.45;;;;;;;;;;1676695;83;21083;-73
2022/02/05 13:12:21;;;;;;;16.37;9.00;;;;;;;;;;1681240;84;21088;-72
2022/02/05 13:14:50;;;;;;;18.12;10.90;;;;;;;;;;1679103;84;21000;-74
2022/02/05 13:17:22;;;;;;;14.95;7.67;;;;;;;;;;1679112;83;21055;-71
2022/02/05 13:20:14;;;;;;;21.20;11.28;;;;;;;;;;1679034;84;21016;-72
2022/02/05 13:36:03;;;;;;;15.55;7.70;;;;;;;;;;1684494;84;21065;-71
2022/02/05 13:38:34;;;;;;;16.25;9.73;;;;;;;;;;1698130;84;21045;-72
2022/02/05 13:41:00;;;;;;;18.42;10.72;;;;;;;;;;1698724;84;21124;-73
2022/02/05 13:43:40;;;;;;;18.45;10.28;;;;;;;;;;1688883;84;22105;-70
2022/02/05 13:45:58;;;;;;;11.90;7.12;;;;;;;;;;1679531;84;21147;-72
2022/02/05 13:48:24;;;;;;;18.50;9.93;;;;;;;;;;1679437;84;21025;-71
2022/02/05 13:50:50;;;;;;;18.65;10.35;;;;;;;;;;1687008;84;21104;-71
2022/02/05 13:53:16;;;;;;;16.65;8.00;;;;;;;;;;1671387;86;21092;-71
2022/02/05 13:55:44;;;;;;;18.12;10.53;;;;;;;;;;1677534;84;21029;-71
2022/02/05 13:58:16;;;;;;;18.67;10.25;;;;;;;;;;1671970;84;21084;-71
2022/02/05 14:00:53;;;;;;;19.45;10.95;;;;;;;;;;1677572;84;21092;-71
2022/02/05 14:03:28;;;;;;;15.00;7.33;;;;;;;;;;1699499;84;21017;-72
2022/02/05 14:06:08;;;;;;;18.85;11.00;;;;;;;;;;1696137;84;21547;-71
2022/02/05 14:08:35;;;;;;;17.95;10.13;;;;;;;;;;1671616;84;21134;-72
2022/02/05 14:11:02;;;;;;;18.55;10.35;;;;;;;;;;1694028;83;21021;-72
2022/02/05 14:13:28;;;;;;;19.77;11.00;;;;;;;;;;1671273;84;21115;-72
2022/02/05 14:15:55;;;;;;;18.75;10.40;;;;;;;;;;1665715;86;21071;-71
2022/02/05 14:18:21;;;;;;;14.03;7.65;;;;;;;;;;1646611;85;21097;-71
2022/02/05 14:20:48;;;;;;;20.27;10.80;;;;;;;;;;1676189;85;21028;-71
2022/02/05 14:23:17;;;;;;;16.17;9.90;;;;;;;;;;1687727;85;21580;-72
2022/02/05 14:25:44;;;;;;;21.30;8.83;;;;;;;;;;1686093;83;21063;-71
2022/02/05 14:28:14;;;;;;;17.87;10.05;;;;;;;;;;1688217;84;21064;-71
2022/02/05 14:30:42;;;;;;;16.48;8.85;;;;;;;;;;1712656;82;21544;-71
2022/02/05 14:33:08;;;;;;;16.40;9.15;;;;;;;;;;1737596;81;21002;-70
2022/02/05 14:40:45;;;;;;;13.50;6.45;;;;;;;;;;1649566;82;21069;-71
2022/02/05 14:43:12;;;;;;;17.12;9.68;;;;;;;;;;1725959;82;20998;-71
2022/02/05 14:45:38;;;;;;;15.05;7.85;;;;;;;;;;1730561;82;21060;-71
2022/02/05 14:48:04;;;;;;;17.12;10.38;;;;;;;;;;1719610;82;21564;-70
2022/02/05 14:50:30;;;;;;;16.50;9.50;;;;;;;;;;1728967;82;21066;-72
2022/02/05 14:52:56;;;;;;;20.52;10.63;;;;;;;;;;1714190;82;21096;-71
2022/02/05 14:55:22;;;;;;;18.77;9.68;;;;;;;;;;1717741;82;21588;-71
2022/02/05 14:57:48;;;;;;;19.20;10.95;;;;;;;;;;1718390;82;21537;-71
2022/02/05 15:00:15;;;;;;;17.80;10.70;;;;;;;;;;1722408;82;21040;-71
2022/02/05 15:02:41;;;;;;;17.62;10.03;;;;;;;;;;1711825;82;21602;-71
2022/02/05 15:05:12;;;;;;;19.92;10.10;;;;;;;;;;1720259;82;20982;-71
2022/02/05 15:07:40;;;;;;;16.85;8.88;;;;;;;;;;1735527;82;21013;-71
2022/02/05 15:10:06;;;;;;;19.15;10.85;;;;;;;;;;1728467;82;21639;-72
2022/02/05 15:12:33;;;;;;;24.00;13.08;;;;;;;;;;1737288;82;21021;-71
2022/02/05 15:14:59;;;;;;;20.65;10.43;;;;;;;;;;1720265;82;21571;-72
2022/02/05 15:17:26;;;;;;;18.87;10.75;;;;;;;;;;1736459;82;21001;-71
2022/02/05 15:19:52;;;;;;;16.25;8.50;;;;;;;;;;1722854;82;21048;-73
2022/02/05 15:22:18;;;;;;;18.85;11.05;;;;;;;;;;1724636;82;21159;-72
2022/02/05 15:24:44;;;;;;;16.25;9.80;;;;;;;;;;1718092;83;21100;-71
2022/02/05 15:27:10;;;;;;;19.50;9.73;;;;;;;;;;1718885;82;21085;-71
2022/02/05 15:29:36;;;;;;;20.90;12.58;;;;;;;;;;1700009;84;21052;-71
2022/02/05 15:32:03;;;;;;;24.72;13.03;;;;;;;;;;1699484;84;21126;-72
2022/02/05 15:34:30;;;;;;;26.52;13.35;;;;;;;;;;1737899;82;21072;-73
2022/02/05 15:37:04;;;;;;;21.77;10.10;;;;;;;;;;1722001;82;21108;-73
2022/02/05 15:44:42;;;;;;;26.07;14.60;;;;;;;;;;1741262;82;21532;-72
2022/02/05 15:47:08;;;;;;;22.20;11.03;;;;;;;;;;1719914;82;21040;-71
2022/02/05 15:49:34;;;;;;;24.00;14.10;;;;;;;;;;1739877;82;20989;-72
2022/02/05 15:52:01;;;;;;;19.92;10.03;;;;;;;;;;1745560;82;21361;-73
2022/02/05 15:54:29;;;;;;;28.23;15.25;;;;;;;;;;1745280;82;21453;-72
2022/02/05 15:57:03;;;;;;;28.10;15.20;;;;;;;;;;1739925;82;21051;-72
2022/02/05 16:00:21;;;;;;;24.02;12.80;;;;;;;;;;1723439;82;21508;-72
2022/02/05 16:01:54;;;;;;;24.02;14.35;;;;;;;;;;1720230;82;21148;-71
2022/02/05 16:04:21;;;;;;;31.33;15.45;;;;;;;;;;1719766;82;21056;-73
2022/02/05 16:06:48;;;;;;;31.12;16.70;;;;;;;;;;1740846;82;21672;-72
2022/02/05 16:09:14;;;;;;;29.42;15.08;;;;;;;;;;1747834;82;21088;-72
2022/02/05 16:11:40;;;;;;;33.08;17.32;;;;;;;;;;1740748;82;21559;-72
2022/02/05 16:14:06;;;;;;;23.50;11.40;;;;;;;;;;1737841;81;21048;-71
2022/02/05 16:16:32;;;;;;;29.18;16.05;;;;;;;;;;1729134;82;20998;-72
2022/02/05 16:18:58;;;;;;;27.05;12.30;;;;;;;;;;1724544;82;21032;-72
2022/02/05 16:21:24;;;;;;;28.00;15.68;;;;;;;;;;1723543;83;21104;-71
2022/02/05 16:23:52;;;;;;;28.65;16.77;;;;;;;;;;1735350;82;21576;-72
2022/02/05 16:26:18;;;;;;;27.10;14.45;;;;;;;;;;1731600;81;21005;-72
2022/02/05 16:28:44;;;;;;;27.40;15.55;;;;;;;;;;1725325;82;21072;-72
2022/02/05 16:31:10;;;;;;;24.92;11.90;;;;;;;;;;1737628;82;21045;-70
2022/02/05 16:33:39;;;;;;;28.75;16.32;;;;;;;;;;1733347;82;21095;-72
2022/02/05 16:36:08;;;;;;;27.45;13.72;;;;;;;;;;1730389;82;21004;-71
2022/02/05 16:38:36;;;;;;;31.33;15.72;;;;;;;;;;1728398;82;21080;-72
2022/02/05 16:41:05;;;;;;;23.42;11.55;;;;;;;;;;1722550;83;21068;-72
2022/02/05 16:43:32;;;;;;;31.68;17.45;;;;;;;;;;1732523;82;22058;-71
2022/02/05 16:45:58;;;;;;;24.72;14.70;;;;;;;;;;1732867;81;21041;-71
2022/02/05 16:48:24;;;;;;;19.27;9.85;;;;;;;;;;1750832;82;21017;-73
2022/02/05 16:50:50;;;;;;;32.30;17.40;;;;;;;;;;1754028;82;21083;-72
2022/02/05 16:53:16;;;;;;;30.97;12.95;;;;;;;;;;1729846;82;21040;-72
2022/02/05 16:55:44;;;;;;;30.15;16.95;;;;;;;;;;1737478;82;21001;-72
2022/02/05 16:58:10;;;;;;;32.48;17.77;;;;;;;;;;1716079;82;21659;-72
2022/02/05 17:00:36;;;;;;;24.50;11.90;;;;;;;;;;1715228;84;21071;-71
2022/02/05 17:03:02;;;;;;;27.02;14.58;;;;;;;;;;1721978;82;21056;-71
2022/02/05 17:05:30;;;;;;;23.18;12.68;;;;;;;;;;1727073;82;21045;-71
2022/02/05 17:08:00;;;;;;;25.55;14.05;;;;;;;;;;1734116;82;21064;-72
2022/02/05 17:10:29;;;;;;;23.12;12.47;;;;;;;;;;1735665;82;21553;-72
2022/02/05 17:12:56;;;;;;;21.30;11.78;;;;;;;;;;1740715;81;20977;-72
2022/02/05 17:15:23;;;;;;;27.13;14.33;;;;;;;;;;1752476;81;21013;-72
2022/02/05 17:18:02;;;;;;;23.73;12.50;;;;;;;;;;1739794;81;21016;-73
2022/02/05 17:20:22;;;;;;;22.82;12.37;;;;;;;;;;1752309;81;21000;-73
2022/02/05 17:22:47;;;;;;;21.60;12.07;;;;;;;;;;1757759;81;20993;-72
2022/02/05 17:25:15;;;;;;;22.35;13.00;;;;;;;;;;1749531;81;21088;-74
2022/02/05 17:27:41;;;;;;;19.50;11.40;;;;;;;;;;1747205;81;21025;-72
2022/02/05 17:30:09;;;;;;;19.87;12.33;;;;;;;;;;1746124;81;21056;-72